Time;durP1;ratioP1;P1;durP2;ratioP2;P2;SDS_P1;SDS_P2;PMS_P1;PMS_P2;Temp;Humidity;BMP_temperature;BMP_pressure;BME280_temperature;BME280_humidity;BME280_pressure;Samples;Min_cycle;Max_cycle;Signal;HPM_P1;HPM_P2
2022/04/19 00:00:35;;;;;;;2.57;2.37;;;13.70;39.00;;;;;;4967372;28;20464;-86
2022/04/19 00:03:05;;;;;;;6.43;2.87;;;13.70;39.10;;;;;;4978554;28;20763;-87
2022/04/19 00:05:35;;;;;;;5.43;3.50;;;13.70;39.40;;;;;;4974856;28;20479;-86
2022/04/19 00:08:04;;;;;;;3.73;2.70;;;13.60;39.90;;;;;;4975600;28;20802;-86
2022/04/19 00:10:34;;;;;;;2.70;2.50;;;13.50;40.50;;;;;;4980549;28;20696;-88
2022/04/19 00:13:06;;;;;;;3.20;2.90;;;13.50;40.70;;;;;;4979156;28;20452;-87
2022/04/19 00:15:38;;;;;;;3.30;2.60;;;13.50;40.80;;;;;;4988101;28;20448;-87
2022/04/19 00:18:08;;;;;;;5.27;3.00;;;13.50;41.00;;;;;;4996778;28;21161;-88
2022/04/19 00:20:40;;;;;;;5.43;3.10;;;13.40;40.90;;;;;;4990018;28;20471;-86
2022/04/19 00:23:12;;;;;;;3.30;3.00;;;13.40;41.10;;;;;;4981797;28;20449;-86
2022/04/19 00:25:41;;;;;;;2.77;2.20;;;13.30;41.00;;;;;;4972929;28;20451;-86
2022/04/19 00:28:10;;;;;;;3.50;2.60;;;13.30;40.80;;;;;;4974958;28;20448;-86
2022/04/19 00:30:40;;;;;;;4.23;2.97;;;13.30;40.90;;;;;;4975435;28;20478;-86
2022/04/19 00:33:08;;;;;;;4.00;2.70;;;13.20;40.80;;;;;;4978976;28;20475;-85
2022/04/19 00:35:38;;;;;;;2.50;2.30;;;13.20;40.20;;;;;;4976452;28;20443;-88
2022/04/19 00:38:06;;;;;;;2.67;2.47;;;13.00;40.60;;;;;;4989207;28;20436;-85
2022/04/19 00:40:34;;;;;;;3.23;2.50;;;12.80;40.90;;;;;;4990138;28;20468;-88
2022/04/19 00:43:04;;;;;;;2.87;2.47;;;12.80;41.00;;;;;;4963401;28;20462;-87
2022/04/19 00:45:34;;;;;;;2.90;2.50;;;12.80;41.00;;;;;;4989530;28;20445;-85
2022/04/19 00:48:03;;;;;;;3.10;2.40;;;12.80;40.80;;;;;;4989503;28;20472;-88
2022/04/19 00:50:35;;;;;;;3.80;2.43;;;12.90;40.70;;;;;;4987056;28;20474;-85
2022/04/19 00:53:04;;;;;;;3.10;2.10;;;12.90;40.70;;;;;;4961165;28;20449;-86
2022/04/19 00:55:33;;;;;;;2.93;2.63;;;12.90;40.60;;;;;;4989502;28;20560;-86
2022/04/19 00:58:06;;;;;;;3.23;2.70;;;12.90;40.70;;;;;;4995674;28;20448;-88
2022/04/19 01:00:34;;;;;;;3.73;2.73;;;12.80;40.80;;;;;;4974640;28;20562;-87
2022/04/19 01:03:13;;;;;;;9.70;3.70;;;12.80;40.80;;;;;;4989670;28;20642;-89
2022/04/19 01:05:45;;;;;;;3.63;2.53;;;12.60;40.90;;;;;;4962684;28;20436;-88
2022/04/19 01:08:17;;;;;;;3.37;3.07;;;12.50;41.60;;;;;;4977563;28;20520;-85
2022/04/19 01:10:46;;;;;;;2.97;2.77;;;12.50;41.80;;;;;;4986940;28;20460;-86
2022/04/19 01:13:24;;;;;;;2.60;2.40;;;12.40;41.60;;;;;;4973355;28;20445;-85
2022/04/19 01:15:57;;;;;;;3.53;3.03;;;12.40;41.70;;;;;;4983043;28;20447;-87
2022/04/19 01:18:29;;;;;;;4.37;2.80;;;12.50;41.60;;;;;;4974078;28;20456;-85
2022/04/19 01:21:02;;;;;;;2.73;2.53;;;12.50;41.50;;;;;;4971185;28;20448;-86
2022/04/19 01:23:32;;;;;;;6.17;2.57;;;12.50;41.50;;;;;;4970943;28;20530;-86
2022/04/19 01:26:00;;;;;;;3.83;2.63;;;12.50;41.70;;;;;;4964406;28;20892;-86
2022/04/19 01:28:29;;;;;;;2.93;2.73;;;12.50;42.50;;;;;;4976747;28;20466;-85
2022/04/19 01:30:58;;;;;;;4.83;3.03;;;12.50;42.60;;;;;;4990264;28;20529;-86
2022/04/19 01:33:28;;;;;;;4.03;2.80;;;12.40;42.50;;;;;;4978650;28;20452;-86
2022/04/19 01:35:56;;;;;;;2.83;2.63;;;12.40;42.70;;;;;;4980717;28;20535;-86
2022/04/19 01:38:25;;;;;;;4.50;3.10;;;12.40;43.30;;;;;;4989843;28;20478;-85
2022/04/19 01:40:55;;;;;;;2.20;2.00;;;12.40;43.80;;;;;;4960905;28;20871;-87
2022/04/19 01:43:46;;;;;;;3.40;2.70;;;12.40;43.40;;;;;;4994778;28;20531;-87
2022/04/19 01:46:16;;;;;;;3.23;2.83;;;12.30;42.70;;;;;;4979787;28;20445;-85
2022/04/19 01:48:44;;;;;;;3.70;2.80;;;12.20;42.60;;;;;;4983405;28;20563;-87
2022/04/19 01:51:14;;;;;;;4.17;3.40;;;12.20;42.70;;;;;;4990225;28;20459;-86
2022/04/19 01:53:42;;;;;;;3.30;2.93;;;12.10;42.10;;;;;;4976280;28;20815;-87
2022/04/19 01:56:12;;;;;;;3.07;2.80;;;12.10;43.00;;;;;;4975410;28;20480;-85
2022/04/19 01:58:55;;;;;;;2.73;2.53;;;12.10;42.20;;;;;;4990536;28;21050;-86
2022/04/19 02:01:37;;;;;;;2.73;2.50;;;12.10;42.10;;;;;;4978078;28;20444;-87
2022/04/19 02:04:06;;;;;;;3.43;3.10;;;12.10;42.40;;;;;;4980910;28;20797;-86
2022/04/19 02:06:35;;;;;;;2.83;2.63;;;12.00;43.10;;;;;;4976539;28;20470;-89
2022/04/19 02:09:04;;;;;;;3.70;2.63;;;12.00;43.40;;;;;;4964754;28;20475;-86
2022/04/19 02:11:37;;;;;;;3.13;2.40;;;12.00;43.90;;;;;;5018634;28;20482;-86
2022/04/19 02:14:23;;;;;;;2.67;2.40;;;11.90;43.90;;;;;;4978826;28;20993;-89
2022/04/19 02:16:53;;;;;;;3.50;2.97;;;11.90;44.00;;;;;;4990453;28;20452;-88
2022/04/19 02:19:21;;;;;;;5.53;3.30;;;11.90;43.90;;;;;;4974306;28;20463;-88
2022/04/19 02:21:49;;;;;;;3.30;3.00;;;11.80;43.80;;;;;;4967143;28;20479;-88
2022/04/19 02:24:16;;;;;;;5.17;3.17;;;11.80;43.90;;;;;;4990871;28;20539;-87
2022/04/19 02:26:46;;;;;;;4.50;2.90;;;11.80;43.80;;;;;;4976832;28;20439;-87
2022/04/19 02:29:15;;;;;;;2.97;2.67;;;11.70;43.80;;;;;;4999567;28;20503;-86
2022/04/19 02:31:46;;;;;;;3.40;2.50;;;11.50;44.20;;;;;;4979478;28;20479;-85
2022/04/19 02:34:18;;;;;;;3.70;3.40;;;11.50;44.80;;;;;;4982635;28;20452;-86
2022/04/19 02:36:47;;;;;;;4.00;2.97;;;11.60;45.10;;;;;;4990432;28;20444;-86
2022/04/19 02:39:15;;;;;;;2.97;2.63;;;11.60;45.10;;;;;;4975234;28;20460;-85
2022/04/19 02:41:47;;;;;;;3.30;2.67;;;11.50;44.90;;;;;;4980903;28;20491;-89
2022/04/19 02:44:16;;;;;;;4.07;2.83;;;11.60;45.00;;;;;;4977995;28;20467;-85
2022/04/19 02:46:54;;;;;;;3.20;2.90;;;11.60;44.70;;;;;;4992409;28;20447;-86
2022/04/19 02:49:22;;;;;;;4.60;2.97;;;11.60;44.40;;;;;;4981282;28;20529;-86
2022/04/19 02:51:50;;;;;;;2.87;2.67;;;11.60;44.30;;;;;;4983380;28;20487;-84
2022/04/19 02:54:20;;;;;;;4.13;2.80;;;11.50;44.00;;;;;;4997377;28;20445;-88
2022/04/19 02:56:49;;;;;;;4.10;2.77;;;11.30;44.50;;;;;;4986000;28;20501;-86
2022/04/19 02:59:17;;;;;;;6.13;2.70;;;11.20;45.20;;;;;;4968042;28;20474;-87
2022/04/19 03:01:45;;;;;;;3.90;2.97;;;11.20;45.20;;;;;;4960307;28;20838;-86
2022/04/19 03:04:12;;;;;;;8.63;2.93;;;11.20;45.20;;;;;;5005043;28;20448;-87
2022/04/19 03:06:40;;;;;;;2.67;2.40;;;11.30;44.80;;;;;;4975848;28;20456;-87
2022/04/19 03:09:08;;;;;;;4.07;3.40;;;11.30;44.60;;;;;;4993279;28;20507;-85
2022/04/19 03:11:36;;;;;;;2.70;2.50;;;11.30;44.60;;;;;;4976194;28;20453;-86
2022/04/19 03:14:08;;;;;;;4.00;3.53;;;11.30;44.70;;;;;;4967187;28;20826;-87
2022/04/19 03:16:37;;;;;;;3.53;2.93;;;11.30;45.70;;;;;;4999113;28;20808;-87
2022/04/19 03:19:05;;;;;;;3.23;2.93;;;11.30;44.90;;;;;;4960103;28;20512;-86
2022/04/19 03:21:36;;;;;;;5.97;3.43;;;11.30;45.10;;;;;;4982846;28;20509;-86
2022/04/19 03:29:38;;;;;;;4.00;3.17;;;11.20;45.60;;;;;;4981917;28;20468;-89
2022/04/19 03:32:09;;;;;;;3.63;3.03;;;11.20;45.90;;;;;;4989261;28;20461;-85
2022/04/19 03:34:36;;;;;;;4.63;3.63;;;11.10;45.70;;;;;;4995658;28;20443;-86
2022/04/19 03:37:05;;;;;;;4.47;3.40;;;11.10;45.80;;;;;;4982439;28;20477;-86
2022/04/19 03:39:35;;;;;;;4.53;3.40;;;11.00;45.80;;;;;;4961309;28;20506;-85
2022/04/19 03:42:03;;;;;;;4.10;3.30;;;11.00;46.20;;;;;;4988767;28;20460;-86
2022/04/19 03:44:32;;;;;;;2.90;2.67;;;11.00;46.30;;;;;;4991422;28;20839;-86
2022/04/19 03:47:10;;;;;;;5.10;3.60;;;11.00;46.10;;;;;;5003922;28;20454;-86
2022/04/19 03:49:41;;;;;;;5.77;4.93;;;11.00;46.10;;;;;;4994384;28;20464;-86
2022/04/19 03:52:10;;;;;;;4.77;3.63;;;11.00;46.30;;;;;;4988682;28;21219;-86
2022/04/19 03:54:39;;;;;;;4.63;3.33;;;11.00;47.30;;;;;;4976451;28;20815;-87
2022/04/19 03:57:10;;;;;;;10.43;6.57;;;10.90;46.70;;;;;;4958123;28;20998;-84
2022/04/19 03:59:41;;;;;;;15.90;11.33;;;10.90;47.30;;;;;;4976458;28;20548;-86
2022/04/19 04:02:11;;;;;;;14.30;7.53;;;10.90;46.30;;;;;;4964791;28;21168;-86
2022/04/19 04:04:40;;;;;;;11.77;8.37;;;10.90;46.30;;;;;;4975581;28;20474;-86
2022/04/19 04:07:09;;;;;;;12.73;7.83;;;10.90;46.20;;;;;;4955950;28;20452;-87
2022/04/19 04:09:37;;;;;;;8.70;6.23;;;10.80;46.10;;;;;;4968556;28;20540;-86
2022/04/19 04:12:11;;;;;;;4.50;3.70;;;10.90;45.90;;;;;;4968836;28;20468;-86
2022/04/19 04:14:41;;;;;;;4.03;3.40;;;10.80;45.40;;;;;;4975643;28;20448;-86
2022/04/19 04:17:11;;;;;;;3.80;3.20;;;10.80;45.50;;;;;;4973557;28;20806;-87
2022/04/19 04:19:43;;;;;;;4.13;3.47;;;10.80;45.10;;;;;;4955700;28;21132;-88
2022/04/19 04:22:14;;;;;;;5.30;4.30;;;10.60;45.90;;;;;;4973203;28;20436;-89
2022/04/19 04:24:43;;;;;;;5.00;4.17;;;10.60;45.90;;;;;;4983228;28;20458;-86
2022/04/19 04:27:12;;;;;;;9.37;5.83;;;10.60;45.70;;;;;;4984879;28;20936;-88
2022/04/19 04:29:41;;;;;;;6.23;4.50;;;10.70;45.30;;;;;;4981633;28;20990;-87
2022/04/19 04:32:11;;;;;;;5.90;4.47;;;10.70;45.20;;;;;;4958786;28;20469;-86
2022/04/19 04:34:39;;;;;;;4.53;4.13;;;10.60;45.20;;;;;;4980971;28;20896;-86
2022/04/19 04:37:08;;;;;;;5.50;4.37;;;10.70;45.00;;;;;;4957212;28;20537;-88
2022/04/19 04:39:44;;;;;;;4.63;4.00;;;10.60;44.90;;;;;;4980201;28;20476;-87
2022/04/19 04:42:35;;;;;;;10.60;4.83;;;10.50;45.20;;;;;;4992801;28;20456;-86
2022/04/19 04:45:14;;;;;;;6.00;4.70;;;10.50;45.50;;;;;;4985917;28;20452;-87
2022/04/19 04:50:32;;;;;;;4.50;4.10;;;10.40;45.40;;;;;;4973021;28;20557;-87
2022/04/19 04:53:03;;;;;;;5.00;4.20;;;10.40;45.60;;;;;;4973637;28;20464;-86
2022/04/19 04:55:33;;;;;;;4.97;3.63;;;10.40;46.90;;;;;;4987858;28;20505;-87
2022/04/19 04:58:01;;;;;;;6.10;4.20;;;10.40;46.70;;;;;;4979480;28;20535;-87
2022/04/19 05:00:31;;;;;;;6.83;3.10;;;10.40;46.80;;;;;;4957598;28;20475;-88
2022/04/19 05:03:04;;;;;;;7.33;3.70;;;10.40;47.20;;;;;;4967130;28;20461;-87
2022/04/19 05:05:32;;;;;;;5.27;3.90;;;10.40;47.10;;;;;;5064896;28;20440;-86
2022/04/19 05:08:03;;;;;;;7.80;4.00;;;10.30;47.00;;;;;;4968360;28;20488;-85
2022/04/19 05:10:32;;;;;;;8.07;5.17;;;10.30;47.00;;;;;;4973514;28;20611;-86
2022/04/19 05:13:03;;;;;;;11.60;5.77;;;10.30;46.90;;;;;;4991418;28;20521;-86
2022/04/19 05:15:32;;;;;;;9.80;5.90;;;10.30;46.70;;;;;;4967641;28;20457;-87
2022/04/19 05:18:01;;;;;;;6.80;5.00;;;10.40;46.90;;;;;;4976041;28;20456;-88
2022/04/19 05:20:30;;;;;;;9.20;4.60;;;10.40;46.90;;;;;;4977900;28;20494;-87
2022/04/19 05:22:59;;;;;;;5.03;4.53;;;10.40;47.20;;;;;;4986549;28;20436;-86
2022/04/19 05:25:28;;;;;;;5.80;3.43;;;10.30;47.20;;;;;;4968068;28;20452;-84
2022/04/19 05:27:58;;;;;;;6.97;4.20;;;10.40;47.70;;;;;;4982408;28;20444;-88
2022/04/19 05:30:28;;;;;;;5.43;5.00;;;10.40;47.40;;;;;;4968683;28;20486;-86
2022/04/19 05:32:57;;;;;;;5.83;5.23;;;10.40;47.40;;;;;;4980223;28;20468;-87
2022/04/19 05:35:25;;;;;;;6.40;5.30;;;10.40;47.40;;;;;;4968530;28;20448;-86
2022/04/19 05:37:55;;;;;;;6.77;5.17;;;10.40;47.40;;;;;;4978340;28;20456;-88
2022/04/19 05:40:23;;;;;;;7.10;5.23;;;10.50;47.50;;;;;;4976061;28;20575;-86
2022/04/19 05:42:51;;;;;;;6.07;4.73;;;10.50;47.30;;;;;;4991703;28;20539;-87
2022/04/19 05:45:21;;;;;;;6.70;5.00;;;10.50;47.20;;;;;;4981625;28;20448;-86
2022/04/19 05:47:49;;;;;;;7.33;4.70;;;10.50;47.30;;;;;;4982454;28;20460;-86
2022/04/19 05:50:17;;;;;;;5.83;5.20;;;10.50;47.20;;;;;;4981633;28;20530;-88
2022/04/19 05:52:45;;;;;;;7.03;5.03;;;10.60;47.30;;;;;;4967362;28;20579;-87
2022/04/19 05:55:18;;;;;;;7.43;5.60;;;10.60;47.30;;;;;;4982252;28;20803;-87
2022/04/19 05:57:45;;;;;;;5.80;4.97;;;10.60;47.50;;;;;;4991826;28;20449;-86
2022/04/19 06:00:13;;;;;;;5.80;4.63;;;10.60;47.40;;;;;;4978025;28;20471;-87
2022/04/19 06:05:43;;;;;;;6.07;4.90;;;10.60;47.40;;;;;;4971141;28;21189;-86
2022/04/19 06:08:12;;;;;;;5.90;4.83;;;10.70;47.40;;;;;;4978395;28;20439;-86
2022/04/19 06:10:41;;;;;;;9.33;5.80;;;10.70;47.40;;;;;;4965736;28;21357;-85
2022/04/19 06:13:10;;;;;;;7.30;5.70;;;10.80;47.30;;;;;;4980988;28;20467;-87
2022/04/19 06:15:39;;;;;;;5.53;4.73;;;10.80;47.30;;;;;;4990941;28;20451;-88
2022/04/19 06:18:10;;;;;;;5.80;4.70;;;10.80;47.10;;;;;;4980601;28;20444;-90
2022/04/19 06:20:54;;;;;;;6.13;5.37;;;10.90;47.20;;;;;;4974371;28;20693;-88
2022/04/19 06:23:25;;;;;;;7.47;5.90;;;10.90;47.40;;;;;;4969493;28;20476;-86
2022/04/19 06:25:55;;;;;;;5.77;5.10;;;10.90;47.50;;;;;;4966553;28;20475;-87
2022/04/19 06:28:29;;;;;;;7.60;5.50;;;11.00;47.50;;;;;;4966993;28;21004;-90
2022/04/19 06:31:17;;;;;;;8.57;5.73;;;10.90;47.40;;;;;;4996290;28;20978;-87
2022/04/19 06:33:51;;;;;;;7.73;4.57;;;11.00;48.00;;;;;;4968472;28;20551;-87
2022/04/19 06:36:22;;;;;;;4.37;3.97;;;11.00;48.10;;;;;;4967144;28;21037;-88
2022/04/19 06:38:51;;;;;;;5.90;4.60;;;11.00;47.70;;;;;;4989464;28;20460;-87
2022/04/19 06:41:21;;;;;;;6.67;4.50;;;11.10;48.00;;;;;;4969987;28;20460;-87
2022/04/19 06:43:49;;;;;;;5.30;4.80;;;11.10;48.00;;;;;;4970489;28;20533;-87
2022/04/19 06:46:20;;;;;;;9.30;6.97;;;11.20;48.00;;;;;;4963733;28;20447;-88
2022/04/19 06:48:59;;;;;;;6.13;5.30;;;11.30;47.90;;;;;;4994655;28;20463;-89
2022/04/19 06:51:27;;;;;;;7.80;7.00;;;11.30;47.70;;;;;;4975206;28;20444;-87
2022/04/19 06:53:56;;;;;;;10.67;5.40;;;11.40;47.40;;;;;;4960650;28;20570;-87
2022/04/19 06:56:45;;;;;;;6.43;4.67;;;11.50;47.60;;;;;;4990307;28;20569;-88
2022/04/19 06:59:14;;;;;;;6.20;5.53;;;11.50;47.20;;;;;;5052263;28;20491;-88
2022/04/19 07:01:43;;;;;;;11.70;8.30;;;11.60;47.20;;;;;;4967446;28;20451;-88
2022/04/19 07:04:30;;;;;;;13.63;6.30;;;11.60;47.20;;;;;;5001316;28;20448;-88
2022/04/19 07:07:03;;;;;;;4.50;3.87;;;11.60;47.40;;;;;;4975093;28;20455;-89
2022/04/19 07:09:32;;;;;;;4.70;3.90;;;11.70;46.80;;;;;;4977399;28;20471;-88
2022/04/19 07:12:03;;;;;;;5.13;4.60;;;11.60;45.20;;;;;;4980844;28;20464;-89
2022/04/19 07:14:36;;;;;;;7.83;4.73;;;11.40;44.90;;;;;;4983875;28;20511;-89
2022/04/19 07:17:27;;;;;;;5.43;4.93;;;11.50;44.80;;;;;;4992594;28;21005;-88
2022/04/19 07:28:20;;;;;;;4.83;4.13;;;12.30;44.70;;;;;;4979422;28;21086;-89
2022/04/19 07:30:50;;;;;;;8.67;4.60;;;12.50;44.10;;;;;;4977450;28;20468;-89
2022/04/19 07:33:20;;;;;;;5.73;4.13;;;12.70;43.80;;;;;;4967375;28;20622;-89
2022/04/19 07:35:48;;;;;;;6.23;4.20;;;12.90;43.70;;;;;;4980300;28;20492;-88
2022/04/19 07:38:24;;;;;;;6.13;3.47;;;13.10;42.70;;;;;;4973427;28;20479;-89
2022/04/19 07:41:17;;;;;;;5.17;3.50;;;13.10;41.50;;;;;;4983427;28;20537;-90
2022/04/19 07:43:47;;;;;;;8.10;4.60;;;13.10;41.70;;;;;;4994930;28;20443;-88
2022/04/19 07:46:16;;;;;;;4.10;3.80;;;13.20;41.60;;;;;;4998893;28;20436;-88
2022/04/19 07:48:45;;;;;;;6.33;4.50;;;13.30;41.50;;;;;;4964628;28;20460;-92
2022/04/19 07:51:12;;;;;;;4.00;3.60;;;13.50;40.90;;;;;;4973404;28;20456;-88
2022/04/19 07:53:41;;;;;;;20.60;7.73;;;13.50;41.00;;;;;;4974737;28;20476;-89
2022/04/19 07:56:09;;;;;;;9.03;6.13;;;13.50;39.90;;;;;;4961860;28;20452;-88
2022/04/19 07:58:37;;;;;;;4.77;4.13;;;13.70;40.30;;;;;;4980422;28;20924;-87
2022/04/19 08:01:07;;;;;;;7.63;4.10;;;13.90;40.40;;;;;;4981259;28;20440;-88
2022/04/19 08:03:36;;;;;;;4.20;3.17;;;14.00;40.30;;;;;;4977256;28;20436;-88
2022/04/19 08:06:06;;;;;;;4.37;3.70;;;14.00;39.70;;;;;;4995472;28;20439;-88
2022/04/19 08:08:35;;;;;;;4.77;3.13;;;14.10;39.30;;;;;;4984799;28;20452;-86
2022/04/19 08:11:05;;;;;;;10.30;3.80;;;14.20;39.20;;;;;;4980825;28;20610;-88
2022/04/19 08:13:34;;;;;;;7.33;3.90;;;14.30;39.60;;;;;;4993728;28;20460;-89
2022/04/19 08:16:03;;;;;;;6.30;4.10;;;14.30;39.70;;;;;;4966093;28;20962;-90
2022/04/19 08:18:33;;;;;;;5.70;3.50;;;14.50;39.50;;;;;;4975807;28;20802;-88
2022/04/19 08:21:01;;;;;;;4.47;3.43;;;14.60;39.60;;;;;;4961635;28;20455;-88
2022/04/19 08:23:29;;;;;;;6.90;3.80;;;14.90;39.20;;;;;;4968897;28;20509;-88
2022/04/19 08:26:02;;;;;;;3.80;3.43;;;15.00;38.50;;;;;;4976014;28;20471;-89
2022/04/19 08:28:30;;;;;;;6.63;3.50;;;15.10;38.60;;;;;;4983166;28;20889;-88
2022/04/19 08:30:59;;;;;;;5.17;3.70;;;15.30;38.90;;;;;;4980434;28;20942;-88
2022/04/19 08:33:34;;;;;;;3.77;3.47;;;15.40;38.30;;;;;;4990920;28;20452;-88
2022/04/19 08:36:04;;;;;;;5.20;3.03;;;15.50;38.60;;;;;;4974549;28;20448;-89
2022/04/19 08:38:33;;;;;;;3.50;2.90;;;15.70;37.90;;;;;;4979260;28;20484;-88
2022/04/19 08:41:01;;;;;;;5.03;3.43;;;15.90;37.70;;;;;;4975392;28;20459;-88
2022/04/19 08:43:30;;;;;;;3.13;2.60;;;16.00;37.30;;;;;;5055792;28;20480;-88
2022/04/19 08:45:58;;;;;;;4.20;3.43;;;16.20;36.60;;;;;;4964499;28;20448;-88
2022/04/19 08:48:27;;;;;;;3.67;2.90;;;16.30;36.30;;;;;;4969091;28;20451;-88
2022/04/19 08:50:57;;;;;;;5.20;3.90;;;16.40;36.40;;;;;;4995869;28;20447;-89
2022/04/19 08:58:58;;;;;;;7.63;3.63;;;16.80;36.00;;;;;;4979865;28;20468;-89
2022/04/19 09:01:25;;;;;;;5.43;2.80;;;17.00;36.40;;;;;;4975444;28;20444;-88
2022/04/19 09:03:54;;;;;;;3.63;2.77;;;17.20;35.40;;;;;;4975319;28;20456;-89
2022/04/19 09:06:52;;;;;;;6.50;3.30;;;17.30;35.50;;;;;;4995233;28;20448;-89
2022/04/19 09:09:23;;;;;;;6.80;3.67;;;17.40;34.10;;;;;;4990539;28;20503;-89
2022/04/19 09:11:50;;;;;;;7.10;3.67;;;17.50;33.80;;;;;;4975905;28;20518;-87
2022/04/19 09:14:19;;;;;;;4.37;3.67;;;17.80;33.40;;;;;;4979234;28;20475;-89
2022/04/19 09:16:48;;;;;;;7.77;3.57;;;17.90;32.70;;;;;;4978639;28;21464;-89
2022/04/19 09:19:27;;;;;;;4.80;3.47;;;18.10;31.90;;;;;;4982411;28;21181;-89
2022/04/19 09:21:57;;;;;;;8.60;4.20;;;18.30;32.30;;;;;;4967131;28;20443;-90
2022/04/19 09:24:26;;;;;;;6.90;3.77;;;18.50;30.70;;;;;;4990787;28;20471;-89
2022/04/19 09:26:55;;;;;;;6.70;4.80;;;18.60;29.60;;;;;;4999516;28;20557;-89
2022/04/19 09:29:24;;;;;;;7.27;4.20;;;18.80;29.90;;;;;;4993669;28;20475;-91
2022/04/19 09:31:53;;;;;;;7.97;4.50;;;19.00;31.50;;;;;;4976414;28;20455;-87
2022/04/19 09:34:24;;;;;;;7.77;4.40;;;19.00;29.40;;;;;;4960790;28;20579;-89
2022/04/19 09:36:54;;;;;;;7.53;3.90;;;19.00;29.80;;;;;;4974880;28;20466;-90
2022/04/19 09:39:28;;;;;;;9.60;4.90;;;18.90;29.80;;;;;;4992783;28;20469;-90
2022/04/19 09:42:01;;;;;;;7.43;3.70;;;19.10;29.30;;;;;;4990966;28;20452;-89
2022/04/19 09:44:30;;;;;;;9.23;4.13;;;19.00;28.20;;;;;;4974390;28;21080;-88
2022/04/19 09:47:05;;;;;;;7.07;4.50;;;18.60;27.80;;;;;;4978124;28;20480;-88
2022/04/19 09:49:45;;;;;;;5.60;4.00;;;18.70;28.80;;;;;;4980826;28;20558;-89
2022/04/19 09:52:14;;;;;;;12.20;4.37;;;19.10;29.40;;;;;;4985586;28;20448;-88
2022/04/19 09:54:45;;;;;;;7.03;4.30;;;19.60;29.10;;;;;;4972813;28;20479;-89
2022/04/19 09:57:12;;;;;;;24.73;5.37;;;19.80;27.40;;;;;;4973302;28;20458;-89
2022/04/19 09:59:45;;;;;;;45.37;22.07;;;19.80;28.10;;;;;;5026019;27;20546;-88
2022/04/19 10:08:13;;;;;;;5.90;3.63;;;20.10;25.70;;;;;;5038138;28;20455;-90
2022/04/19 10:10:43;;;;;;;4.30;3.30;;;20.10;25.00;;;;;;5081319;28;20463;-89
2022/04/19 10:13:13;;;;;;;5.73;3.93;;;20.20;26.60;;;;;;5084134;27;20460;-89
2022/04/19 10:15:42;;;;;;;5.87;3.77;;;20.60;25.90;;;;;;5073666;27;20466;-88
2022/04/19 10:18:13;;;;;;;3.60;3.20;;;20.90;25.60;;;;;;5086750;27;20523;-89
2022/04/19 10:20:45;;;;;;;8.73;4.60;;;20.80;24.90;;;;;;5086577;27;20494;-88
2022/04/19 10:23:14;;;;;;;6.93;3.50;;;20.70;25.40;;;;;;5064467;27;20515;-89
2022/04/19 10:25:44;;;;;;;5.90;5.30;;;20.80;24.20;;;;;;5093707;27;20469;-88
2022/04/19 10:28:14;;;;;;;7.03;5.70;;;21.20;25.00;;;;;;5088483;27;20435;-88
2022/04/19 10:30:51;;;;;;;5.00;4.13;;;21.30;24.50;;;;;;5081061;27;20477;-88
2022/04/19 10:33:52;;;;;;;6.17;3.87;;;21.30;24.20;;;;;;5087872;27;20443;-88
2022/04/19 10:36:23;;;;;;;6.47;3.37;;;21.40;24.40;;;;;;5088464;27;20529;-88
2022/04/19 10:39:20;;;;;;;3.73;3.23;;;21.50;25.00;;;;;;5099140;27;21012;-88
2022/04/19 10:41:57;;;;;;;4.80;3.57;;;21.90;24.10;;;;;;5100365;27;21865;-88
2022/04/19 10:44:48;;;;;;;4.67;4.30;;;22.20;24.10;;;;;;5099533;27;20847;-89
2022/04/19 10:47:17;;;;;;;7.40;4.47;;;22.30;24.10;;;;;;5101219;27;20553;-89
2022/04/19 10:50:07;;;;;;;7.57;5.00;;;22.50;23.40;;;;;;5077020;27;20482;-89
2022/04/19 10:52:49;;;;;;;9.93;3.00;;;22.70;24.30;;;;;;5080423;27;20477;-88
2022/04/19 10:55:24;;;;;;;4.83;3.23;;;22.70;24.20;;;;;;5101653;27;20514;-89
2022/04/19 11:00:53;;;;;;;2.60;2.40;;;22.80;24.20;;;;;;5104333;27;20557;-89
2022/04/19 11:03:44;;;;;;;4.33;2.50;;;22.60;23.90;;;;;;5092769;28;20437;-88
2022/04/19 11:06:37;;;;;;;2.77;2.57;;;22.10;23.90;;;;;;5080587;27;20441;-88
2022/04/19 11:09:21;;;;;;;3.83;2.80;;;22.30;24.20;;;;;;5090759;27;21025;-90
2022/04/19 11:11:51;;;;;;;4.77;3.13;;;22.20;23.40;;;;;;5089404;27;20446;-90
2022/04/19 11:14:46;;;;;;;3.60;2.83;;;22.50;23.80;;;;;;5098850;27;20577;-90
2022/04/19 11:17:29;;;;;;;4.10;2.57;;;22.50;23.60;;;;;;5071093;27;20454;-91
2022/04/19 11:20:14;;;;;;;2.80;2.37;;;22.80;23.30;;;;;;5089811;27;20502;-89
2022/04/19 11:22:51;;;;;;;3.07;2.43;;;22.40;23.50;;;;;;5084398;27;20435;-89
2022/04/19 11:25:39;;;;;;;2.90;2.53;;;21.90;25.00;;;;;;5083893;27;20438;-89
2022/04/19 11:28:28;;;;;;;2.73;2.30;;;22.40;24.40;;;;;;5080723;27;20961;-89
2022/04/19 11:31:15;;;;;;;2.30;1.77;;;23.10;24.50;;;;;;5096588;28;20464;-89
2022/04/19 11:33:44;;;;;;;2.63;2.03;;;23.30;22.20;;;;;;5099557;27;20440;-89
2022/04/19 11:36:15;;;;;;;2.20;1.97;;;23.30;22.80;;;;;;5111196;27;20491;-87
2022/04/19 11:38:46;;;;;;;2.40;2.20;;;23.00;23.30;;;;;;5084992;28;20472;-89
2022/04/19 11:46:48;;;;;;;5.70;2.53;;;23.10;22.60;;;;;;5111289;27;20434;-89
2022/04/19 11:49:30;;;;;;;3.40;2.10;;;23.30;23.10;;;;;;5094675;27;20566;-89
2022/04/19 11:51:59;;;;;;;4.30;2.40;;;23.10;23.10;;;;;;5077564;27;20439;-90
2022/04/19 11:54:29;;;;;;;2.90;2.00;;;23.00;23.40;;;;;;5109032;27;21164;-88
2022/04/19 11:57:00;;;;;;;6.03;2.00;;;22.90;23.50;;;;;;5086918;27;20861;-89
2022/04/19 11:59:31;;;;;;;4.00;1.90;;;23.30;23.20;;;;;;5070306;27;20466;-86
2022/04/19 12:02:02;;;;;;;2.50;2.20;;;23.30;23.40;;;;;;5093637;27;20446;-90
2022/04/19 12:04:30;;;;;;;2.63;2.23;;;23.40;23.80;;;;;;5092318;27;20442;-90
2022/04/19 12:07:02;;;;;;;2.27;2.07;;;23.50;23.60;;;;;;5071672;27;20485;-89
2022/04/19 12:09:32;;;;;;;4.80;2.00;;;23.70;23.40;;;;;;5110716;27;21015;-89
2022/04/19 12:12:00;;;;;;;3.00;2.20;;;23.50;23.60;;;;;;5085162;28;20522;-89
2022/04/19 12:14:29;;;;;;;2.10;1.90;;;23.80;22.60;;;;;;5078928;28;20454;-89
2022/04/19 12:17:00;;;;;;;2.40;1.90;;;24.00;22.70;;;;;;5077507;28;20474;-90
2022/04/19 12:19:38;;;;;;;3.30;2.00;;;24.10;23.60;;;;;;5091309;28;22418;-89
2022/04/19 12:22:17;;;;;;;2.33;2.00;;;24.20;22.60;;;;;;5079421;28;21217;-89
2022/04/19 12:24:48;;;;;;;1.90;1.63;;;23.90;22.80;;;;;;5093271;28;20992;-89
2022/04/19 12:27:23;;;;;;;3.17;2.10;;;24.10;22.60;;;;;;5090127;28;20854;-90
2022/04/19 12:30:03;;;;;;;5.20;2.10;;;24.10;23.00;;;;;;5087852;28;20464;-89
2022/04/19 12:32:55;;;;;;;2.93;2.10;;;24.50;23.00;;;;;;5085729;28;20450;-89
2022/04/19 12:35:33;;;;;;;2.43;1.80;;;24.40;23.00;;;;;;5099171;28;20520;-91
2022/04/19 12:38:06;;;;;;;1.77;1.67;;;24.70;23.40;;;;;;5073507;28;20439;-89
2022/04/19 12:40:35;;;;;;;1.77;1.60;;;24.60;22.80;;;;;;5070740;28;20492;-87
2022/04/19 12:43:03;;;;;;;2.77;1.67;;;24.30;22.90;;;;;;5090169;28;20866;-89
2022/04/19 12:45:33;;;;;;;6.50;1.70;;;24.50;23.80;;;;;;5086184;28;20490;-93
2022/04/19 12:48:04;;;;;;;1.90;1.80;;;24.50;23.30;;;;;;5068866;28;20512;-91
2022/04/19 12:50:32;;;;;;;6.10;1.57;;;24.70;22.80;;;;;;5103098;28;20469;-89
2022/04/19 12:53:02;;;;;;;1.80;1.70;;;24.60;23.20;;;;;;5095152;27;20435;-91
2022/04/19 12:55:30;;;;;;;1.77;1.67;;;24.50;23.40;;;;;;5093407;28;20453;-90
2022/04/19 12:58:08;;;;;;;1.50;1.40;;;24.40;23.10;;;;;;5117945;27;20434;-90
2022/04/19 13:00:38;;;;;;;5.90;1.77;;;24.60;22.80;;;;;;5070485;27;20461;-90
2022/04/19 13:03:08;;;;;;;1.80;1.43;;;24.70;22.70;;;;;;5082623;27;20504;-89
2022/04/19 13:13:54;;;;;;;2.07;1.97;;;25.00;22.60;;;;;;5087380;28;20437;-93
2022/04/19 13:16:21;;;;;;;3.63;1.90;;;25.30;22.40;;;;;;5086625;28;20462;-89
2022/04/19 13:18:50;;;;;;;2.17;2.00;;;24.90;23.00;;;;;;5069310;28;20536;-90
2022/04/19 13:21:19;;;;;;;2.97;1.67;;;24.90;22.90;;;;;;5069873;27;20467;-89
2022/04/19 13:23:47;;;;;;;3.50;2.10;;;24.80;23.10;;;;;;5080506;28;20977;-90
2022/04/19 13:26:16;;;;;;;2.00;1.73;;;24.30;23.40;;;;;;5096184;28;20827;-89
2022/04/19 13:28:44;;;;;;;2.60;1.90;;;24.30;23.60;;;;;;5106968;27;20439;-90
2022/04/19 13:31:12;;;;;;;1.90;1.70;;;24.30;23.80;;;;;;5077992;27;20536;-89
2022/04/19 13:33:41;;;;;;;7.63;2.10;;;24.30;24.00;;;;;;5066939;27;20446;-90
2022/04/19 13:36:11;;;;;;;2.53;1.77;;;24.70;23.70;;;;;;5069617;27;20541;-89
2022/04/19 13:38:40;;;;;;;2.17;1.90;;;24.70;22.60;;;;;;5078751;28;20449;-89
2022/04/19 13:41:08;;;;;;;1.87;1.77;;;24.70;23.60;;;;;;5081789;27;20812;-88
2022/04/19 13:43:37;;;;;;;2.30;2.10;;;24.70;23.30;;;;;;5099855;27;20469;-88
2022/04/19 13:46:06;;;;;;;2.40;2.20;;;24.70;23.80;;;;;;5078503;27;20446;-89
2022/04/19 13:48:35;;;;;;;3.20;2.07;;;25.30;23.50;;;;;;5085951;27;20953;-86
2022/04/19 13:51:03;;;;;;;2.10;1.90;;;25.30;23.20;;;;;;5078523;27;20454;-89
2022/04/19 13:53:33;;;;;;;2.53;2.33;;;25.40;22.70;;;;;;5084367;27;20537;-89
2022/04/19 13:56:02;;;;;;;8.93;1.70;;;25.30;23.50;;;;;;5067986;27;20492;-90